Time;durP1;ratioP1;P1;durP2;ratioP2;P2;SDS_P1;SDS_P2;PMS_P1;PMS_P2;Temp;Humidity;BMP_temperature;BMP_pressure;BME280_temperature;BME280_humidity;BME280_pressure;Samples;Min_cycle;Max_cycle;Signal;HPM_P1;HPM_P2
2021/12/30 00:01:17;;;;;;;57.05;11.40;;;;;;;;;;5075476;27;99740;-72
2021/12/30 00:03:44;;;;;;;67.38;12.13;;;;;;;;;;5074781;27;99727;-72
2021/12/30 00:06:11;;;;;;;62.35;11.55;;;;;;;;;;5074702;27;97631;-72
2021/12/30 00:08:37;;;;;;;63.47;12.25;;;;;;;;;;5075606;27;98755;-72
2021/12/30 00:11:05;;;;;;;63.20;13.63;;;;;;;;;;5078549;27;99701;-72
2021/12/30 00:13:31;;;;;;;68.40;11.93;;;;;;;;;;5074686;27;99599;-72
2021/12/30 00:15:58;;;;;;;65.55;11.77;;;;;;;;;;5074114;27;99058;-73
2021/12/30 00:18:24;;;;;;;53.75;11.88;;;;;;;;;;5075240;27;98452;-72
2021/12/30 00:20:51;;;;;;;62.63;11.65;;;;;;;;;;5075187;27;98496;-72
2021/12/30 00:23:17;;;;;;;64.53;12.57;;;;;;;;;;5074822;27;99968;-73
2021/12/30 00:25:44;;;;;;;65.97;12.35;;;;;;;;;;5075176;27;98487;-73
2021/12/30 00:28:13;;;;;;;65.57;12.27;;;;;;;;;;5075093;27;99413;-72
2021/12/30 00:30:40;;;;;;;70.60;12.30;;;;;;;;;;5056376;27;100133;-73
2021/12/30 00:33:06;;;;;;;74.43;11.95;;;;;;;;;;5078162;27;98439;-73
2021/12/30 00:35:34;;;;;;;58.97;12.02;;;;;;;;;;5074489;27;100016;-73
2021/12/30 00:38:01;;;;;;;69.93;13.15;;;;;;;;;;5074526;27;99118;-72
2021/12/30 00:40:27;;;;;;;71.57;11.93;;;;;;;;;;5074852;27;100172;-72
2021/12/30 00:42:54;;;;;;;70.57;12.50;;;;;;;;;;5074539;27;99746;-72
2021/12/30 00:45:20;;;;;;;57.67;10.95;;;;;;;;;;5056206;27;98414;-72
2021/12/30 00:47:47;;;;;;;80.47;12.60;;;;;;;;;;5074781;27;98849;-73
2021/12/30 00:50:13;;;;;;;67.65;11.75;;;;;;;;;;5074427;27;99244;-72
2021/12/30 00:52:40;;;;;;;72.63;11.63;;;;;;;;;;5074540;27;98420;-73
2021/12/30 00:55:07;;;;;;;72.32;11.90;;;;;;;;;;5078002;27;99137;-73
2021/12/30 00:57:33;;;;;;;65.95;10.93;;;;;;;;;;5074339;27;98987;-73
2021/12/30 01:00:00;;;;;;;69.10;10.65;;;;;;;;;;5067188;27;98950;-73
2021/12/30 01:02:26;;;;;;;56.30;11.20;;;;;;;;;;5073708;27;100410;-73
2021/12/30 01:04:52;;;;;;;62.92;11.18;;;;;;;;;;5074557;27;98412;-73
2021/12/30 01:07:21;;;;;;;59.05;11.15;;;;;;;;;;5074428;27;99436;-73
2021/12/30 01:09:47;;;;;;;65.13;11.27;;;;;;;;;;5074023;27;99886;-72
2021/12/30 01:12:14;;;;;;;63.78;10.93;;;;;;;;;;5074097;27;98398;-73
2021/12/30 01:14:45;;;;;;;78.75;11.57;;;;;;;;;;5074191;27;98941;-73
2021/12/30 01:17:21;;;;;;;88.25;12.38;;;;;;;;;;5058444;27;102188;-73
2021/12/30 01:19:50;;;;;;;71.68;13.38;;;;;;;;;;5074427;27;99911;-73
2021/12/30 01:22:16;;;;;;;79.38;13.45;;;;;;;;;;5073588;27;99283;-73
2021/12/30 01:24:43;;;;;;;82.43;14.18;;;;;;;;;;5073922;27;98452;-74
2021/12/30 01:27:09;;;;;;;80.82;14.48;;;;;;;;;;5073350;27;99387;-72
2021/12/30 01:29:36;;;;;;;82.63;14.93;;;;;;;;;;5073773;27;99620;-73
2021/12/30 01:32:03;;;;;;;75.65;15.70;;;;;;;;;;5073885;27;98396;-73
2021/12/30 01:34:29;;;;;;;82.07;16.08;;;;;;;;;;5073945;27;98937;-73
2021/12/30 01:36:59;;;;;;;81.35;16.17;;;;;;;;;;5073598;27;99687;-73
2021/12/30 01:39:25;;;;;;;68.80;15.55;;;;;;;;;;5076785;27;98282;-73
2021/12/30 01:41:52;;;;;;;83.90;16.30;;;;;;;;;;5073430;27;99704;-72
2021/12/30 01:44:19;;;;;;;68.97;15.40;;;;;;;;;;5074350;27;97708;-73
2021/12/30 01:46:45;;;;;;;74.07;17.00;;;;;;;;;;5073517;27;99350;-73
2021/12/30 01:49:13;;;;;;;78.07;15.77;;;;;;;;;;5055258;27;100059;-72
2021/12/30 01:51:40;;;;;;;73.45;16.58;;;;;;;;;;5073129;27;99385;-73
2021/12/30 01:54:07;;;;;;;82.90;17.50;;;;;;;;;;5073290;27;100473;-73
2021/12/30 01:56:33;;;;;;;72.65;16.83;;;;;;;;;;5073086;27;98781;-72
2021/12/30 01:58:59;;;;;;;86.18;17.88;;;;;;;;;;5073568;27;98716;-73
2021/12/30 02:01:26;;;;;;;76.07;17.90;;;;;;;;;;5076435;27;99493;-72
2021/12/30 02:03:53;;;;;;;86.72;18.52;;;;;;;;;;5073478;27;98355;-73
2021/12/30 02:06:24;;;;;;;76.85;19.08;;;;;;;;;;5073410;27;98835;-73
2021/12/30 02:08:51;;;;;;;86.05;18.63;;;;;;;;;;5073498;27;98820;-73
2021/12/30 02:11:18;;;;;;;90.13;19.92;;;;;;;;;;5073532;27;98348;-72
2021/12/30 02:13:46;;;;;;;88.45;20.33;;;;;;;;;;5073285;27;99410;-72
2021/12/30 02:16:16;;;;;;;88.28;20.48;;;;;;;;;;5072033;27;100416;-72
2021/12/30 02:18:43;;;;;;;81.85;19.85;;;;;;;;;;5073477;27;99627;-72
2021/12/30 02:21:12;;;;;;;90.47;20.25;;;;;;;;;;5076142;27;98833;-72
2021/12/30 02:23:39;;;;;;;92.55;20.90;;;;;;;;;;5073460;27;98560;-72
2021/12/30 02:26:10;;;;;;;78.95;22.55;;;;;;;;;;5072924;27;100456;-72
2021/12/30 02:28:37;;;;;;;85.95;21.77;;;;;;;;;;5071967;27;99693;-72
2021/12/30 02:31:05;;;;;;;94.93;22.10;;;;;;;;;;5073025;27;98472;-72
2021/12/30 02:33:32;;;;;;;96.00;23.00;;;;;;;;;;5073340;27;99551;-73
2021/12/30 02:35:58;;;;;;;97.80;23.30;;;;;;;;;;5072502;27;99593;-72
2021/12/30 02:38:25;;;;;;;99.22;24.23;;;;;;;;;;5073204;27;98296;-72
2021/12/30 02:40:53;;;;;;;88.32;23.65;;;;;;;;;;5072520;27;99487;-72
2021/12/30 02:43:20;;;;;;;103.97;25.45;;;;;;;;;;5076066;27;99090;-72
2021/12/30 02:45:47;;;;;;;100.53;26.83;;;;;;;;;;5054821;27;100007;-72
2021/12/30 02:48:15;;;;;;;96.35;26.08;;;;;;;;;;5072400;27;99899;-72
2021/12/30 02:50:42;;;;;;;94.00;24.17;;;;;;;;;;5072851;27;98425;-72
2021/12/30 02:53:10;;;;;;;93.90;25.17;;;;;;;;;;5072881;27;98841;-72
2021/12/30 02:55:36;;;;;;;85.38;23.52;;;;;;;;;;5072321;27;100156;-72
2021/12/30 02:58:03;;;;;;;90.53;23.20;;;;;;;;;;5073214;27;97688;-71
2021/12/30 03:00:29;;;;;;;77.82;23.08;;;;;;;;;;5072732;27;98649;-71
2021/12/30 03:02:56;;;;;;;73.45;20.83;;;;;;;;;;5072040;27;99598;-71
2021/12/30 03:05:24;;;;;;;63.33;20.65;;;;;;;;;;5075461;27;99438;-71
2021/12/30 03:07:51;;;;;;;70.47;19.67;;;;;;;;;;5072428;27;99514;-71
2021/12/30 03:10:18;;;;;;;61.50;19.48;;;;;;;;;;5072668;27;98240;-72
2021/12/30 03:12:45;;;;;;;55.75;18.58;;;;;;;;;;5072568;27;99442;-72
2021/12/30 03:15:12;;;;;;;56.38;18.38;;;;;;;;;;5071615;27;99749;-72
2021/12/30 03:17:39;;;;;;;56.15;18.13;;;;;;;;;;5072038;27;98442;-72
2021/12/30 03:20:09;;;;;;;51.03;17.40;;;;;;;;;;5072407;27;99527;-72
2021/12/30 03:22:36;;;;;;;46.97;18.00;;;;;;;;;;5072700;27;98883;-72
2021/12/30 03:25:05;;;;;;;51.65;17.77;;;;;;;;;;5072548;27;98319;-72
2021/12/30 03:27:31;;;;;;;45.13;17.25;;;;;;;;;;5075361;27;99584;-72
2021/12/30 03:29:58;;;;;;;48.22;17.50;;;;;;;;;;5053689;27;99135;-73
2021/12/30 03:32:24;;;;;;;47.58;16.35;;;;;;;;;;5072487;27;100816;-72
2021/12/30 03:34:50;;;;;;;43.22;18.52;;;;;;;;;;5072039;27;99968;-72
2021/12/30 03:37:17;;;;;;;49.28;20.05;;;;;;;;;;5072316;27;98335;-72
2021/12/30 03:39:44;;;;;;;43.35;19.25;;;;;;;;;;5072239;27;98983;-71
2021/12/30 03:42:11;;;;;;;39.13;17.90;;;;;;;;;;5075451;27;99646;-71
2021/12/30 03:44:37;;;;;;;45.92;19.30;;;;;;;;;;5075604;27;98397;-72
2021/12/30 03:47:05;;;;;;;44.88;18.05;;;;;;;;;;5075999;27;99456;-71
2021/12/30 03:49:32;;;;;;;33.72;17.17;;;;;;;;;;5078656;27;99417;-72
2021/12/30 03:51:58;;;;;;;49.75;19.33;;;;;;;;;;5075891;27;99435;-72
2021/12/30 03:54:24;;;;;;;38.15;18.00;;;;;;;;;;5079267;27;100226;-72
2021/12/30 03:56:51;;;;;;;36.38;18.50;;;;;;;;;;5082161;27;98413;-72
2021/12/30 03:59:17;;;;;;;32.42;15.95;;;;;;;;;;5081042;27;99481;-72
2021/12/30 04:01:44;;;;;;;34.30;16.38;;;;;;;;;;5078519;27;98949;-72
2021/12/30 04:04:10;;;;;;;33.97;16.83;;;;;;;;;;5075322;27;98943;-72
2021/12/30 04:06:37;;;;;;;32.22;14.98;;;;;;;;;;5075370;27;99481;-72
2021/12/30 04:09:05;;;;;;;29.40;14.35;;;;;;;;;;5075128;27;99724;-72
2021/12/30 04:11:34;;;;;;;40.10;16.80;;;;;;;;;;5078820;27;97641;-72
2021/12/30 04:14:01;;;;;;;32.70;14.48;;;;;;;;;;5074786;27;99715;-73
2021/12/30 04:16:28;;;;;;;33.00;15.50;;;;;;;;;;5074671;27;98453;-73
2021/12/30 04:18:54;;;;;;;37.38;17.80;;;;;;;;;;5074767;27;99224;-72
2021/12/30 04:21:21;;;;;;;36.60;16.85;;;;;;;;;;5074760;27;99193;-73
2021/12/30 04:23:48;;;;;;;43.40;17.80;;;;;;;;;;5075097;27;98327;-72
2021/12/30 04:26:14;;;;;;;43.47;18.27;;;;;;;;;;5074800;27;99035;-72
2021/12/30 04:28:40;;;;;;;47.85;19.48;;;;;;;;;;5074749;27;99746;-71
2021/12/30 04:31:08;;;;;;;41.03;16.85;;;;;;;;;;5078490;27;98821;-71
2021/12/30 04:33:34;;;;;;;38.67;15.93;;;;;;;;;;5074761;27;99567;-71
2021/12/30 04:36:01;;;;;;;30.15;13.50;;;;;;;;;;5075427;27;98820;-71
2021/12/30 04:38:29;;;;;;;25.02;12.73;;;;;;;;;;5074663;27;99054;-71
2021/12/30 04:40:55;;;;;;;27.92;12.15;;;;;;;;;;5074288;27;99209;-72
2021/12/30 04:43:22;;;;;;;20.83;11.63;;;;;;;;;;5055795;27;99268;-71
2021/12/30 04:45:48;;;;;;;27.90;11.90;;;;;;;;;;5074904;27;100298;-71
2021/12/30 04:48:15;;;;;;;20.05;10.68;;;;;;;;;;5074461;27;99667;-71
2021/12/30 04:50:44;;;;;;;19.08;10.65;;;;;;;;;;5074971;27;98396;-71
2021/12/30 04:53:14;;;;;;;15.73;9.25;;;;;;;;;;5077061;27;99583;-71
2021/12/30 04:55:41;;;;;;;19.55;9.88;;;;;;;;;;5075469;27;99177;-71
2021/12/30 04:58:07;;;;;;;20.25;9.52;;;;;;;;;;5075225;27;99891;-70
2021/12/30 05:00:34;;;;;;;18.40;10.05;;;;;;;;;;5075532;27;98919;-71
2021/12/30 05:03:08;;;;;;;13.52;7.82;;;;;;;;;;5074750;27;98382;-71
2021/12/30 05:05:36;;;;;;;13.52;7.90;;;;;;;;;;5075165;27;98891;-71
2021/12/30 05:08:03;;;;;;;11.48;6.63;;;;;;;;;;5073949;27;100464;-72
2021/12/30 05:10:29;;;;;;;7.80;5.43;;;;;;;;;;5075048;27;98233;-71
2021/12/30 05:12:55;;;;;;;10.68;5.40;;;;;;;;;;5075038;27;99346;-71
2021/12/30 05:15:22;;;;;;;8.65;4.88;;;;;;;;;;5077540;27;100888;-71
2021/12/30 05:17:48;;;;;;;7.07;5.03;;;;;;;;;;5074941;27;99444;-71
2021/12/30 05:20:15;;;;;;;13.80;5.95;;;;;;;;;;5074560;27;99492;-71
2021/12/30 05:22:42;;;;;;;7.13;6.00;;;;;;;;;;5074717;27;98411;-71
2021/12/30 05:25:12;;;;;;;9.82;6.20;;;;;;;;;;5075528;27;99344;-72
2021/12/30 05:27:39;;;;;;;9.98;5.72;;;;;;;;;;5074534;27;100047;-71
2021/12/30 05:30:06;;;;;;;8.43;5.75;;;;;;;;;;5074833;27;98172;-71
2021/12/30 05:32:32;;;;;;;15.20;7.82;;;;;;;;;;5074378;27;99064;-71
2021/12/30 05:34:58;;;;;;;20.00;8.95;;;;;;;;;;5074382;27;99545;-72
2021/12/30 05:37:25;;;;;;;32.97;11.23;;;;;;;;;;5077577;27;98383;-72
2021/12/30 05:39:51;;;;;;;32.80;11.98;;;;;;;;;;5073515;27;99184;-72
2021/12/30 05:42:18;;;;;;;45.85;15.35;;;;;;;;;;5073749;27;98340;-72
2021/12/30 05:44:44;;;;;;;31.02;12.88;;;;;;;;;;5074023;27;99025;-72
2021/12/30 05:47:10;;;;;;;39.28;15.00;;;;;;;;;;5072927;27;99353;-72
2021/12/30 05:49:36;;;;;;;46.42;17.08;;;;;;;;;;5074167;27;97564;-72
2021/12/30 05:52:03;;;;;;;55.33;17.75;;;;;;;;;;5073666;27;98397;-72
2021/12/30 05:54:29;;;;;;;47.78;16.40;;;;;;;;;;5073286;27;99047;-72
2021/12/30 05:56:56;;;;;;;43.95;15.63;;;;;;;;;;5055185;27;99218;-72
2021/12/30 05:59:22;;;;;;;41.00;14.43;;;;;;;;;;5076596;27;99445;-72
2021/12/30 06:01:49;;;;;;;35.25;12.63;;;;;;;;;;5073205;27;98357;-72
2021/12/30 06:04:16;;;;;;;33.67;10.55;;;;;;;;;;5072220;27;99370;-72
2021/12/30 06:06:42;;;;;;;31.50;11.10;;;;;;;;;;5073007;27;99273;-72
2021/12/30 06:09:08;;;;;;;36.05;11.23;;;;;;;;;;5073297;27;98253;-72
2021/12/30 06:11:35;;;;;;;32.28;11.25;;;;;;;;;;5073604;27;99672;-72
2021/12/30 06:14:01;;;;;;;34.47;10.85;;;;;;;;;;5073169;27;100194;-72
2021/12/30 06:16:27;;;;;;;28.58;10.85;;;;;;;;;;5072582;27;98342;-72
2021/12/30 06:18:54;;;;;;;33.17;11.32;;;;;;;;;;5076247;27;99429;-72
2021/12/30 06:21:20;;;;;;;27.30;9.63;;;;;;;;;;5072842;27;99125;-72
2021/12/30 06:23:47;;;;;;;27.25;10.82;;;;;;;;;;5074062;27;100288;-72
2021/12/30 06:26:13;;;;;;;22.23;10.60;;;;;;;;;;5072786;27;99706;-72
2021/12/30 06:28:39;;;;;;;26.52;9.57;;;;;;;;;;5073050;27;99833;-72
2021/12/30 06:31:06;;;;;;;21.67;10.00;;;;;;;;;;5055273;27;100476;-72
2021/12/30 06:33:37;;;;;;;19.25;9.18;;;;;;;;;;5072900;27;100129;-72
2021/12/30 06:36:04;;;;;;;17.45;8.50;;;;;;;;;;5073783;27;98414;-72
2021/12/30 06:38:31;;;;;;;17.77;7.78;;;;;;;;;;5074367;27;99339;-72
2021/12/30 06:40:58;;;;;;;13.82;7.03;;;;;;;;;;5076776;27;99694;-72
2021/12/30 06:43:24;;;;;;;14.23;7.50;;;;;;;;;;5055437;27;100706;-72
2021/12/30 06:45:51;;;;;;;13.13;6.60;;;;;;;;;;5072369;27;99986;-72
2021/12/30 06:48:17;;;;;;;11.23;6.05;;;;;;;;;;5073763;27;98322;-72
2021/12/30 06:50:51;;;;;;;10.52;6.32;;;;;;;;;;5073845;27;99475;-72
2021/12/30 06:53:19;;;;;;;11.35;6.57;;;;;;;;;;5073247;27;99752;-72
2021/12/30 06:55:45;;;;;;;11.40;6.28;;;;;;;;;;5073781;27;98337;-72
2021/12/30 06:58:12;;;;;;;10.65;6.30;;;;;;;;;;5072978;27;98729;-72
2021/12/30 07:00:38;;;;;;;9.13;6.15;;;;;;;;;;5073063;27;100229;-72
2021/12/30 07:03:05;;;;;;;14.57;6.78;;;;;;;;;;5077265;27;97645;-72
2021/12/30 07:05:32;;;;;;;11.68;6.43;;;;;;;;;;5072892;27;100120;-73
2021/12/30 07:07:59;;;;;;;16.27;6.90;;;;;;;;;;5073725;27;98435;-72
2021/12/30 07:10:25;;;;;;;12.30;6.65;;;;;;;;;;5072986;27;99240;-73
2021/12/30 07:12:52;;;;;;;14.88;7.68;;;;;;;;;;5072819;27;99771;-73
2021/12/30 07:15:18;;;;;;;12.75;7.15;;;;;;;;;;5073952;27;98403;-72
2021/12/30 07:17:45;;;;;;;15.75;7.75;;;;;;;;;;5077039;27;99359;-73
2021/12/30 07:20:11;;;;;;;15.68;7.47;;;;;;;;;;5076352;27;99591;-73
2021/12/30 07:22:38;;;;;;;15.00;7.45;;;;;;;;;;5076925;27;98325;-72
2021/12/30 07:25:16;;;;;;;12.98;6.60;;;;;;;;;;5079489;27;99585;-73
2021/12/30 07:27:44;;;;;;;14.48;5.55;;;;;;;;;;5077130;27;97653;-73
2021/12/30 07:30:10;;;;;;;11.82;6.07;;;;;;;;;;5076844;27;98898;-73
2021/12/30 07:32:37;;;;;;;8.20;4.47;;;;;;;;;;5076159;27;99670;-72
2021/12/30 07:35:03;;;;;;;8.55;5.22;;;;;;;;;;5076168;27;99122;-72
2021/12/30 07:37:29;;;;;;;12.27;5.32;;;;;;;;;;5076484;27;99676;-73
2021/12/30 07:39:56;;;;;;;11.15;5.25;;;;;;;;;;5075719;27;98763;-72
2021/12/30 07:42:22;;;;;;;11.93;5.43;;;;;;;;;;5076450;27;98901;-71
2021/12/30 07:44:48;;;;;;;8.98;4.78;;;;;;;;;;5076579;27;99555;-72
2021/12/30 07:47:16;;;;;;;15.43;5.05;;;;;;;;;;5079270;27;99600;-73
2021/12/30 07:49:43;;;;;;;11.60;5.10;;;;;;;;;;5076502;27;99298;-73
2021/12/30 07:52:09;;;;;;;13.73;6.15;;;;;;;;;;5076551;27;99026;-73
2021/12/30 07:54:35;;;;;;;12.27;6.30;;;;;;;;;;5076207;27;98379;-73
2021/12/30 07:57:02;;;;;;;19.00;8.52;;;;;;;;;;5076346;27;99341;-74
2021/12/30 07:59:28;;;;;;;18.83;9.98;;;;;;;;;;5075323;27;100527;-74
2021/12/30 08:01:55;;;;;;;23.00;11.45;;;;;;;;;;5075734;27;100085;-73
2021/12/30 08:04:22;;;;;;;21.88;10.80;;;;;;;;;;5075260;27;99265;-73
2021/12/30 08:06:48;;;;;;;30.48;12.38;;;;;;;;;;5074773;27;99518;-74
2021/12/30 08:09:15;;;;;;;23.75;11.77;;;;;;;;;;5060702;27;98318;-74
2021/12/30 08:11:41;;;;;;;23.45;12.18;;;;;;;;;;5075200;27;99855;-72
2021/12/30 08:14:07;;;;;;;19.88;9.68;;;;;;;;;;5075452;27;98356;-73
2021/12/30 08:16:34;;;;;;;25.17;12.00;;;;;;;;;;5078518;27;99898;-72
2021/12/30 08:19:00;;;;;;;28.08;11.40;;;;;;;;;;5078581;27;99738;-73
2021/12/30 08:21:26;;;;;;;19.83;9.93;;;;;;;;;;5061021;27;98410;-73
2021/12/30 08:23:54;;;;;;;19.38;9.85;;;;;;;;;;5079480;27;99350;-74
2021/12/30 08:26:21;;;;;;;18.13;8.05;;;;;;;;;;5076073;27;99778;-74
2021/12/30 08:28:47;;;;;;;20.33;7.35;;;;;;;;;;5078865;27;98455;-73
2021/12/30 08:31:14;;;;;;;16.55;7.18;;;;;;;;;;5075445;27;99691;-74
2021/12/30 08:33:40;;;;;;;24.58;7.60;;;;;;;;;;5075662;27;98396;-74
2021/12/30 08:36:07;;;;;;;23.95;7.35;;;;;;;;;;5075328;27;99531;-74
2021/12/30 08:38:33;;;;;;;21.23;7.80;;;;;;;;;;5075156;27;99887;-73
2021/12/30 08:40:59;;;;;;;20.73;6.95;;;;;;;;;;5076093;27;97641;-73
2021/12/30 08:43:26;;;;;;;22.70;7.10;;;;;;;;;;5075754;27;98701;-72
2021/12/30 08:45:52;;;;;;;22.35;7.13;;;;;;;;;;5075516;27;98508;-72
2021/12/30 08:48:22;;;;;;;15.98;6.00;;;;;;;;;;5075134;27;99177;-72
2021/12/30 08:50:48;;;;;;;30.95;7.22;;;;;;;;;;5078056;27;100185;-72
2021/12/30 08:53:15;;;;;;;18.88;6.95;;;;;;;;;;5075384;27;98211;-72
2021/12/30 08:55:41;;;;;;;20.52;6.47;;;;;;;;;;5075304;27;99499;-72
2021/12/30 08:58:07;;;;;;;26.05;6.50;;;;;;;;;;5074928;27;99198;-72
2021/12/30 09:00:38;;;;;;;28.08;6.95;;;;;;;;;;5075490;27;98724;-73
2021/12/30 09:03:05;;;;;;;34.42;6.68;;;;;;;;;;5075431;27;99007;-73
2021/12/30 09:05:32;;;;;;;25.70;6.40;;;;;;;;;;5074943;27;99215;-74
2021/12/30 09:07:58;;;;;;;27.23;6.70;;;;;;;;;;5021944;27;99383;-73
2021/12/30 09:10:33;;;;;;;19.50;6.30;;;;;;;;;;5075332;27;98949;-73
2021/12/30 09:13:00;;;;;;;25.73;6.88;;;;;;;;;;5077741;27;100506;-73
2021/12/30 09:15:27;;;;;;;26.20;7.03;;;;;;;;;;5074806;27;100240;-73
2021/12/30 09:17:54;;;;;;;25.80;7.22;;;;;;;;;;5074090;27;99775;-72
2021/12/30 09:20:20;;;;;;;21.70;6.57;;;;;;;;;;5075435;27;98252;-73
2021/12/30 09:22:47;;;;;;;21.90;7.82;;;;;;;;;;5075037;27;99377;-73
2021/12/30 09:25:14;;;;;;;35.05;7.75;;;;;;;;;;5074414;27;99623;-73
2021/12/30 09:27:41;;;;;;;33.05;7.60;;;;;;;;;;5074705;27;98322;-72
2021/12/30 09:30:09;;;;;;;25.05;7.50;;;;;;;;;;5075390;27;99752;-73
2021/12/30 09:32:38;;;;;;;32.35;7.70;;;;;;;;;;5080413;27;99878;-72
2021/12/30 09:35:05;;;;;;;27.80;7.90;;;;;;;;;;5091850;27;98379;-72
2021/12/30 09:37:31;;;;;;;29.00;7.63;;;;;;;;;;5055535;27;101750;-72
2021/12/30 09:39:59;;;;;;;25.38;7.93;;;;;;;;;;5074643;27;98211;-73
2021/12/30 09:42:25;;;;;;;18.38;6.38;;;;;;;;;;5074634;27;99507;-72
2021/12/30 09:44:53;;;;;;;21.73;7.05;;;;;;;;;;5073700;27;99757;-73
2021/12/30 09:47:20;;;;;;;21.35;6.18;;;;;;;;;;5074358;27;98320;-73
2021/12/30 09:49:47;;;;;;;25.25;7.25;;;;;;;;;;5074695;27;98946;-74
2021/12/30 09:52:14;;;;;;;34.47;6.90;;;;;;;;;;5073963;27;99544;-73
2021/12/30 09:54:40;;;;;;;25.45;6.90;;;;;;;;;;5056391;27;97792;-73
2021/12/30 09:57:06;;;;;;;25.10;5.93;;;;;;;;;;5077753;27;98575;-72
2021/12/30 09:59:34;;;;;;;29.83;5.93;;;;;;;;;;5074315;27;98365;-74
2021/12/30 10:02:00;;;;;;;19.80;5.43;;;;;;;;;;5073696;27;100142;-73
2021/12/30 10:04:31;;;;;;;28.13;6.50;;;;;;;;;;5074064;27;99460;-73
2021/12/30 10:06:58;;;;;;;26.60;6.15;;;;;;;;;;5074282;27;98339;-73
2021/12/30 10:09:50;;;;;;;20.42;6.10;;;;;;;;;;5074331;27;99548;-73
2021/12/30 10:12:39;;;;;;;15.60;5.38;;;;;;;;;;5073563;27;99667;-72
2021/12/30 10:15:06;;;;;;;19.95;5.38;;;;;;;;;;5074104;27;98312;-72
2021/12/30 10:17:33;;;;;;;25.27;5.60;;;;;;;;;;5074086;27;99478;-74
2021/12/30 10:20:21;;;;;;;27.77;6.35;;;;;;;;;;5077307;27;99213;-73
2021/12/30 10:22:48;;;;;;;28.42;6.30;;;;;;;;;;5074103;27;98691;-73
2021/12/30 10:25:29;;;;;;;17.70;5.63;;;;;;;;;;5073763;27;99559;-72
2021/12/30 10:28:15;;;;;;;16.20;4.65;;;;;;;;;;5073376;27;99118;-72
2021/12/30 10:30:41;;;;;;;19.13;6.05;;;;;;;;;;5069171;27;100185;-71
2021/12/30 10:33:12;;;;;;;25.00;6.30;;;;;;;;;;5052971;27;99977;-74
2021/12/30 10:35:40;;;;;;;16.00;5.67;;;;;;;;;;5053593;27;98408;-76
2021/12/30 10:38:09;;;;;;;23.52;6.25;;;;;;;;;;5053517;27;98910;-73
2021/12/30 10:40:37;;;;;;;24.98;6.57;;;;;;;;;;5056379;27;99691;-74
2021/12/30 10:43:20;;;;;;;23.33;5.50;;;;;;;;;;5053205;27;99705;-73
2021/12/30 10:46:02;;;;;;;18.30;6.03;;;;;;;;;;5053282;27;98995;-74
2021/12/30 10:48:29;;;;;;;21.35;5.68;;;;;;;;;;5053348;27;98366;-73
2021/12/30 10:51:12;;;;;;;20.95;5.82;;;;;;;;;;5055372;27;99891;-73
2021/12/30 10:53:39;;;;;;;19.52;5.82;;;;;;;;;;5055666;27;100452;-74
2021/12/30 10:56:39;;;;;;;19.23;5.13;;;;;;;;;;5056370;27;98544;-73
2021/12/30 10:59:09;;;;;;;20.35;4.95;;;;;;;;;;5011794;27;99544;-73
2021/12/30 11:01:36;;;;;;;20.58;4.63;;;;;;;;;;5056453;27;100107;-74
2021/12/30 11:04:03;;;;;;;15.32;4.53;;;;;;;;;;5059959;27;98350;-74
2021/12/30 11:06:31;;;;;;;16.92;4.53;;;;;;;;;;5055761;27;100045;-73
2021/12/30 11:09:06;;;;;;;15.35;4.60;;;;;;;;;;5056509;27;98445;-73
2021/12/30 11:11:32;;;;;;;21.15;5.75;;;;;;;;;;5056860;27;99628;-74
2021/12/30 11:14:00;;;;;;;13.52;4.28;;;;;;;;;;5056146;27;99804;-73
2021/12/30 11:16:26;;;;;;;13.68;4.05;;;;;;;;;;5056447;27;98452;-73
2021/12/30 11:18:55;;;;;;;17.48;4.53;;;;;;;;;;5055407;27;99305;-74
2021/12/30 11:21:34;;;;;;;16.20;4.90;;;;;;;;;;5056119;27;99511;-74
2021/12/30 11:24:02;;;;;;;13.25;4.35;;;;;;;;;;5056473;27;99128;-74
2021/12/30 11:26:30;;;;;;;18.15;4.70;;;;;;;;;;5059274;27;99369;-73
2021/12/30 11:28:57;;;;;;;15.90;4.63;;;;;;;;;;5056453;27;98363;-74
2021/12/30 11:31:23;;;;;;;16.70;5.55;;;;;;;;;;5055659;27;99603;-74
2021/12/30 11:33:50;;;;;;;19.98;5.28;;;;;;;;;;5038277;27;99334;-73
2021/12/30 11:36:16;;;;;;;15.45;5.35;;;;;;;;;;5057043;27;97694;-74
2021/12/30 11:38:43;;;;;;;15.00;5.05;;;;;;;;;;5037865;27;101495;-74
2021/12/30 11:41:16;;;;;;;15.20;5.13;;;;;;;;;;5055368;27;99579;-74
2021/12/30 11:43:44;;;;;;;11.90;4.88;;;;;;;;;;5055593;27;99189;-76
2021/12/30 11:46:29;;;;;;;17.30;5.13;;;;;;;;;;5055526;27;99722;-72
2021/12/30 11:48:57;;;;;;;18.35;5.55;;;;;;;;;;5058877;27;99606;-74
2021/12/30 11:51:39;;;;;;;15.23;4.80;;;;;;;;;;5016268;28;101770;-78
2021/12/30 11:54:37;;;;;;;11.35;5.40;;;;;;;;;;5016441;28;101031;-74
2021/12/30 11:57:27;;;;;;;20.25;5.20;;;;;;;;;;4989760;28;98568;-77
2021/12/30 11:59:54;;;;;;;16.70;5.15;;;;;;;;;;5023009;28;99648;-78
2021/12/30 12:02:27;;;;;;;20.50;5.80;;;;;;;;;;5032645;27;98578;-74
2021/12/30 12:04:53;;;;;;;12.85;4.88;;;;;;;;;;5033065;28;98547;-74
2021/12/30 12:07:20;;;;;;;20.55;6.13;;;;;;;;;;5033224;28;99517;-75
2021/12/30 12:09:47;;;;;;;18.70;5.40;;;;;;;;;;5032860;28;100604;-75
2021/12/30 12:12:35;;;;;;;17.70;5.47;;;;;;;;;;5036661;28;98365;-74
2021/12/30 12:15:02;;;;;;;14.57;5.32;;;;;;;;;;5032841;28;99481;-75
2021/12/30 12:17:35;;;;;;;16.95;5.50;;;;;;;;;;5033029;28;98597;-73
2021/12/30 12:20:18;;;;;;;15.57;5.05;;;;;;;;;;5033179;28;99428;-74
2021/12/30 12:22:45;;;;;;;22.92;5.55;;;;;;;;;;5047377;27;99790;-70
2021/12/30 12:25:16;;;;;;;18.33;5.85;;;;;;;;;;5056957;27;98593;-73
2021/12/30 12:27:45;;;;;;;13.70;5.87;;;;;;;;;;5056891;27;99615;-71
2021/12/30 12:30:24;;;;;;;21.65;5.90;;;;;;;;;;5061162;27;99566;-71
2021/12/30 12:32:58;;;;;;;14.32;6.15;;;;;;;;;;5076554;27;98346;-74
2021/12/30 12:35:26;;;;;;;16.10;5.68;;;;;;;;;;5078211;27;99124;-74
2021/12/30 12:37:59;;;;;;;20.75;6.13;;;;;;;;;;5075586;27;98525;-73
2021/12/30 12:40:31;;;;;;;13.80;5.20;;;;;;;;;;5075166;27;99930;-73
2021/12/30 12:43:07;;;;;;;12.27;5.40;;;;;;;;;;5074960;27;99756;-74
2021/12/30 12:45:49;;;;;;;10.73;4.93;;;;;;;;;;5075649;27;98304;-72
2021/12/30 12:48:21;;;;;;;11.85;4.50;;;;;;;;;;5075403;27;99499;-73
2021/12/30 12:50:52;;;;;;;14.15;5.05;;;;;;;;;;5074794;27;99725;-73
2021/12/30 12:53:24;;;;;;;13.75;4.90;;;;;;;;;;5075928;27;97927;-72
2021/12/30 12:55:51;;;;;;;11.25;4.95;;;;;;;;;;5078223;27;98354;-73
2021/12/30 12:58:19;;;;;;;10.63;4.38;;;;;;;;;;5075403;27;98449;-73
2021/12/30 13:00:47;;;;;;;11.80;5.00;;;;;;;;;;5074792;27;99382;-74
2021/12/30 13:03:17;;;;;;;13.55;5.45;;;;;;;;;;5074459;27;99637;-72
2021/12/30 13:06:02;;;;;;;11.82;4.85;;;;;;;;;;5075361;27;98484;-74
2021/12/30 13:08:29;;;;;;;15.88;4.95;;;;;;;;;;5075296;27;99900;-73
2021/12/30 13:10:56;;;;;;;11.18;4.97;;;;;;;;;;5074718;27;99793;-72
2021/12/30 13:13:29;;;;;;;10.20;5.82;;;;;;;;;;5074698;27;98346;-73
2021/12/30 13:15:56;;;;;;;15.10;6.13;;;;;;;;;;5074651;27;99011;-73
2021/12/30 13:18:23;;;;;;;18.85;5.80;;;;;;;;;;5078337;27;99053;-73
2021/12/30 13:20:50;;;;;;;16.35;6.47;;;;;;;;;;5075044;27;98756;-73
2021/12/30 13:23:25;;;;;;;11.10;5.70;;;;;;;;;;5056440;27;99718;-73
2021/12/30 13:25:55;;;;;;;14.73;5.32;;;;;;;;;;5074491;27;99210;-73
2021/12/30 13:28:22;;;;;;;15.98;6.72;;;;;;;;;;5056312;27;100078;-74
2021/12/30 13:30:48;;;;;;;15.52;5.70;;;;;;;;;;5074192;27;99648;-74
2021/12/30 13:33:15;;;;;;;19.63;6.53;;;;;;;;;;5074760;27;98393;-74
2021/12/30 13:35:42;;;;;;;17.40;5.60;;;;;;;;;;5074667;27;99255;-76
2021/12/30 13:38:09;;;;;;;6.80;5.60;;;;;;;;;;5074353;27;99562;-76
2021/12/30 13:40:37;;;;;;;12.50;4.55;;;;;;;;;;5059459;27;98399;-75
2021/12/30 13:43:08;;;;;;;19.98;5.13;;;;;;;;;;5074492;27;98653;-75
2021/12/30 13:45:36;;;;;;;10.57;4.45;;;;;;;;;;5074688;27;98358;-76
2021/12/30 13:48:12;;;;;;;11.35;3.95;;;;;;;;;;5074658;27;99235;-75
2021/12/30 13:50:40;;;;;;;12.98;4.28;;;;;;;;;;5073759;27;99453;-74
2021/12/30 13:53:07;;;;;;;11.98;5.15;;;;;;;;;;5074110;27;98416;-74
2021/12/30 13:55:39;;;;;;;10.65;3.90;;;;;;;;;;5090152;27;99302;-74
2021/12/30 13:58:11;;;;;;;15.07;4.32;;;;;;;;;;5101257;27;99294;-73
2021/12/30 14:00:37;;;;;;;;;;;;;;;;;;5095248;27;98310;-73
2021/12/30 14:03:05;;;;;;;8.77;3.40;;;;;;;;;;5097041;27;128818;-73
2021/12/30 14:05:32;;;;;;;8.73;3.95;;;;;;;;;;5094690;27;98391;-73
2021/12/30 14:08:02;;;;;;;16.73;4.40;;;;;;;;;;5084966;27;98907;-74
2021/12/30 14:10:41;;;;;;;5.78;3.40;;;;;;;;;;5073844;27;99614;-73
2021/12/30 14:13:07;;;;;;;13.45;4.85;;;;;;;;;;5074322;27;98488;-73
2021/12/30 14:15:35;;;;;;;14.13;4.70;;;;;;;;;;5073340;27;99240;-73
2021/12/30 14:18:08;;;;;;;13.70;4.57;;;;;;;;;;5073556;27;99627;-74
2021/12/30 14:20:36;;;;;;;12.63;4.45;;;;;;;;;;5073789;27;98358;-73
2021/12/30 14:23:03;;;;;;;11.05;5.07;;;;;;;;;;5074127;27;99506;-74
2021/12/30 14:25:32;;;;;;;9.98;4.15;;;;;;;;;;5076064;27;99554;-74
2021/12/30 14:27:59;;;;;;;16.25;5.38;;;;;;;;;;5073997;27;99444;-74
2021/12/30 14:30:36;;;;;;;14.27;7.57;;;;;;;;;;5055556;27;99179;-74